Time;durP1;ratioP1;P1;durP2;ratioP2;P2;SDS_P1;SDS_P2;PMS_P1;PMS_P2;Temp;Humidity;BMP_temperature;BMP_pressure;BME280_temperature;BME280_humidity;BME280_pressure;Samples;Min_cycle;Max_cycle;Signal;HPM_P1;HPM_P2
2022/07/15 00:02:29;;;;;;;5.78;2.55;;;;;;;;;;4900306;29;20044;-83
2022/07/15 00:05:15;;;;;;;5.35;2.55;;;;;;;;;;4900089;29;20048;-82
2022/07/15 00:08:00;;;;;;;3.78;1.90;;;;;;;;;;4899253;29;20044;-83
2022/07/15 00:10:46;;;;;;;4.90;2.25;;;;;;;;;;4900302;29;20048;-84
2022/07/15 00:13:31;;;;;;;4.72;2.05;;;;;;;;;;4899928;29;20041;-82
2022/07/15 00:16:17;;;;;;;6.72;2.40;;;;;;;;;;4899176;29;20048;-84
2022/07/15 00:19:03;;;;;;;3.67;2.03;;;;;;;;;;4899938;29;20412;-84
2022/07/15 00:21:48;;;;;;;3.25;2.13;;;;;;;;;;4900205;29;20037;-84
2022/07/15 00:24:34;;;;;;;3.20;2.13;;;;;;;;;;4900021;29;20040;-82
2022/07/15 00:27:20;;;;;;;2.83;2.13;;;;;;;;;;4899699;29;20392;-84
2022/07/15 00:30:06;;;;;;;4.68;2.28;;;;;;;;;;4900010;29;20040;-82
2022/07/15 00:32:51;;;;;;;4.38;2.03;;;;;;;;;;4899595;29;20041;-84
2022/07/15 00:35:38;;;;;;;2.28;2.08;;;;;;;;;;4906258;29;20377;-83
2022/07/15 00:38:23;;;;;;;8.63;2.10;;;;;;;;;;4899760;29;20048;-84
2022/07/15 00:41:08;;;;;;;2.78;1.90;;;;;;;;;;4904464;29;20037;-85
2022/07/15 00:43:54;;;;;;;3.72;2.28;;;;;;;;;;4903846;29;20036;-85
2022/07/15 00:46:41;;;;;;;4.28;2.30;;;;;;;;;;4902635;29;20036;-84
2022/07/15 00:49:26;;;;;;;4.63;2.10;;;;;;;;;;4917891;29;20410;-84
2022/07/15 00:52:12;;;;;;;4.70;2.22;;;;;;;;;;4902744;29;20423;-84
2022/07/15 00:55:00;;;;;;;5.82;2.10;;;;;;;;;;4907582;29;20052;-85
2022/07/15 00:57:45;;;;;;;6.43;2.40;;;;;;;;;;4909120;29;20388;-83
2022/07/15 01:00:32;;;;;;;4.40;2.47;;;;;;;;;;4918023;29;20044;-83
2022/07/15 01:03:18;;;;;;;2.88;2.10;;;;;;;;;;4910294;29;20468;-84
2022/07/15 01:06:04;;;;;;;4.78;2.70;;;;;;;;;;4910316;29;20048;-84
2022/07/15 01:08:50;;;;;;;9.32;2.72;;;;;;;;;;4908080;29;20044;-83
2022/07/15 01:11:35;;;;;;;4.88;3.00;;;;;;;;;;4908405;29;20290;-84
2022/07/15 01:14:22;;;;;;;6.72;3.20;;;;;;;;;;4908132;29;20044;-82
2022/07/15 01:17:10;;;;;;;4.45;2.78;;;;;;;;;;4908462;29;20052;-84
2022/07/15 01:19:57;;;;;;;5.03;2.65;;;;;;;;;;4908358;29;20036;-84
2022/07/15 01:22:45;;;;;;;6.13;2.30;;;;;;;;;;4908742;29;20044;-84
2022/07/15 01:25:31;;;;;;;4.35;2.13;;;;;;;;;;4910022;29;20047;-83
2022/07/15 01:28:16;;;;;;;5.55;2.15;;;;;;;;;;4909725;29;20384;-82
2022/07/15 01:31:02;;;;;;;2.38;1.95;;;;;;;;;;4909919;29;20472;-84
2022/07/15 01:33:49;;;;;;;6.70;2.08;;;;;;;;;;4910441;29;20380;-84
2022/07/15 01:36:35;;;;;;;2.97;1.95;;;;;;;;;;4909337;29;20048;-82
2022/07/15 01:39:21;;;;;;;5.03;2.10;;;;;;;;;;4909672;29;20048;-83
2022/07/15 01:42:06;;;;;;;6.43;2.13;;;;;;;;;;4909803;29;20044;-83
2022/07/15 01:44:52;;;;;;;5.90;2.20;;;;;;;;;;4909177;29;20044;-82
2022/07/15 01:47:46;;;;;;;3.45;2.35;;;;;;;;;;4909604;29;20048;-83
2022/07/15 01:50:38;;;;;;;3.78;2.10;;;;;;;;;;4908356;29;20476;-84
2022/07/15 01:53:30;;;;;;;3.55;2.08;;;;;;;;;;4909510;29;20444;-83
2022/07/15 01:56:15;;;;;;;3.47;2.05;;;;;;;;;;4909705;29;20064;-84
2022/07/15 01:59:01;;;;;;;4.00;2.15;;;;;;;;;;4909640;29;20044;-82
2022/07/15 02:01:46;;;;;;;4.18;2.17;;;;;;;;;;4909655;29;20048;-83
2022/07/15 02:04:34;;;;;;;5.05;2.20;;;;;;;;;;4909508;29;20044;-83
2022/07/15 02:07:20;;;;;;;3.85;1.83;;;;;;;;;;4909412;29;20044;-84
2022/07/15 02:10:06;;;;;;;3.92;2.15;;;;;;;;;;4909580;29;20387;-82
2022/07/15 02:12:52;;;;;;;6.30;2.05;;;;;;;;;;4908973;29;20044;-82
2022/07/15 02:15:43;;;;;;;3.83;1.85;;;;;;;;;;4909656;29;20475;-82
2022/07/15 02:18:28;;;;;;;3.28;1.98;;;;;;;;;;4905539;29;20048;-83
2022/07/15 02:21:14;;;;;;;3.03;2.15;;;;;;;;;;4917271;29;20052;-82
2022/07/15 02:24:00;;;;;;;3.92;2.30;;;;;;;;;;4910013;29;20464;-85
2022/07/15 02:26:46;;;;;;;2.10;1.80;;;;;;;;;;4895669;29;20388;-82
2022/07/15 02:29:31;;;;;;;6.63;2.10;;;;;;;;;;4909150;29;20043;-85
2022/07/15 02:32:17;;;;;;;3.95;2.40;;;;;;;;;;4908970;29;20040;-81
2022/07/15 02:35:03;;;;;;;3.35;2.30;;;;;;;;;;4896028;29;20052;-84
2022/07/15 02:37:48;;;;;;;2.67;2.00;;;;;;;;;;4909408;29;20052;-83
2022/07/15 02:40:34;;;;;;;2.38;2.10;;;;;;;;;;4909005;29;20048;-85
2022/07/15 02:43:19;;;;;;;4.63;2.03;;;;;;;;;;4909555;29;20047;-83
2022/07/15 02:46:05;;;;;;;2.50;1.90;;;;;;;;;;4895702;29;20048;-84
2022/07/15 02:48:51;;;;;;;6.68;2.10;;;;;;;;;;4908997;29;20036;-83
2022/07/15 02:51:37;;;;;;;2.88;2.20;;;;;;;;;;4917379;29;20044;-85
2022/07/15 02:54:22;;;;;;;2.78;2.20;;;;;;;;;;4895389;29;20044;-83
2022/07/15 02:57:08;;;;;;;4.57;2.05;;;;;;;;;;4896183;29;20048;-84
2022/07/15 02:59:56;;;;;;;4.78;2.35;;;;;;;;;;4909072;29;20052;-84
2022/07/15 03:02:41;;;;;;;3.03;2.00;;;;;;;;;;4911201;29;20040;-83
2022/07/15 03:05:29;;;;;;;5.25;2.30;;;;;;;;;;4900769;29;20392;-84
2022/07/15 03:08:16;;;;;;;4.43;2.13;;;;;;;;;;4911959;29;20052;-84
2022/07/15 03:11:02;;;;;;;5.47;2.20;;;;;;;;;;4898902;29;20395;-83
2022/07/15 03:13:46;;;;;;;7.00;2.83;;;;;;;;;;4919952;29;20392;-83
2022/07/15 03:16:33;;;;;;;7.40;3.60;;;;;;;;;;4912183;29;20056;-85
2022/07/15 03:19:22;;;;;;;10.05;3.53;;;;;;;;;;4906786;29;20048;-84
2022/07/15 03:22:08;;;;;;;15.23;3.63;;;;;;;;;;4911868;29;20384;-82
2022/07/15 03:24:56;;;;;;;13.15;3.30;;;;;;;;;;4912200;29;20065;-84
2022/07/15 03:27:41;;;;;;;14.25;3.30;;;;;;;;;;4924774;29;20048;-81
2022/07/15 03:30:29;;;;;;;9.57;3.15;;;;;;;;;;4911998;29;20048;-84
2022/07/15 03:33:15;;;;;;;5.38;2.75;;;;;;;;;;4925649;29;20476;-83
2022/07/15 03:36:02;;;;;;;5.88;2.83;;;;;;;;;;4911718;29;20040;-85
2022/07/15 03:38:51;;;;;;;5.28;2.47;;;;;;;;;;4912028;29;20048;-85
2022/07/15 03:41:36;;;;;;;7.18;2.72;;;;;;;;;;4911980;29;20384;-83
2022/07/15 03:44:22;;;;;;;3.40;2.30;;;;;;;;;;4911934;29;20043;-84
2022/07/15 03:47:08;;;;;;;6.03;2.15;;;;;;;;;;4911749;29;20039;-83
2022/07/15 03:49:54;;;;;;;3.35;2.40;;;;;;;;;;4911176;29;20486;-82
2022/07/15 03:52:40;;;;;;;3.88;2.55;;;;;;;;;;4924749;29;20044;-83
2022/07/15 03:55:25;;;;;;;4.78;2.50;;;;;;;;;;4898634;29;20476;-85
2022/07/15 03:58:10;;;;;;;6.35;2.80;;;;;;;;;;4924354;29;20052;-82
2022/07/15 04:00:55;;;;;;;4.65;2.65;;;;;;;;;;4924753;29;20048;-83
2022/07/15 04:03:40;;;;;;;7.53;3.10;;;;;;;;;;4911308;29;20044;-83
2022/07/15 04:06:26;;;;;;;4.85;3.03;;;;;;;;;;4924470;29;20044;-85
2022/07/15 04:09:12;;;;;;;17.30;4.50;;;;;;;;;;4924827;29;20464;-85
2022/07/15 04:11:58;;;;;;;5.95;2.80;;;;;;;;;;4918761;29;20044;-85
2022/07/15 04:14:44;;;;;;;10.05;3.88;;;;;;;;;;4910903;29;20384;-85
2022/07/15 04:17:30;;;;;;;11.80;4.82;;;;;;;;;;4920415;29;20468;-85
2022/07/15 04:20:15;;;;;;;15.57;5.30;;;;;;;;;;4911476;29;20384;-86
2022/07/15 04:23:05;;;;;;;11.20;4.93;;;;;;;;;;4910907;29;20044;-84
2022/07/15 04:25:52;;;;;;;8.73;4.65;;;;;;;;;;4908795;29;20036;-85
2022/07/15 04:28:37;;;;;;;11.38;4.10;;;;;;;;;;4905137;29;20048;-86
2022/07/15 04:31:23;;;;;;;9.10;3.67;;;;;;;;;;4911452;29;20055;-83
2022/07/15 04:34:17;;;;;;;9.15;3.80;;;;;;;;;;4905499;29;20048;-85
2022/07/15 04:37:04;;;;;;;7.60;3.63;;;;;;;;;;4907324;29;20056;-86
2022/07/15 04:39:49;;;;;;;9.45;3.08;;;;;;;;;;4908292;29;20048;-81
2022/07/15 04:42:36;;;;;;;11.27;3.20;;;;;;;;;;4904806;29;20052;-81
2022/07/15 04:45:25;;;;;;;12.25;3.20;;;;;;;;;;4905243;29;20048;-83
2022/07/15 04:51:19;;;;;;;8.07;3.20;;;;;;;;;;4917966;29;20399;-82
2022/07/15 04:54:04;;;;;;;8.48;3.28;;;;;;;;;;4918472;29;20040;-81
2022/07/15 04:56:50;;;;;;;11.15;3.90;;;;;;;;;;4910286;29;20048;-84
2022/07/15 04:59:36;;;;;;;12.68;4.30;;;;;;;;;;4910382;29;20062;-83
2022/07/15 05:02:22;;;;;;;11.48;4.63;;;;;;;;;;4910583;29;20048;-85
2022/07/15 05:05:08;;;;;;;9.40;4.25;;;;;;;;;;4918332;29;20051;-83
2022/07/15 05:07:53;;;;;;;15.93;4.35;;;;;;;;;;4900064;29;20044;-84
2022/07/15 05:10:39;;;;;;;14.50;4.10;;;;;;;;;;4908784;29;20048;-84
2022/07/15 05:13:24;;;;;;;11.35;4.75;;;;;;;;;;4909877;29;20048;-83
2022/07/15 05:16:13;;;;;;;19.27;4.30;;;;;;;;;;4910164;29;20048;-84
2022/07/15 05:18:59;;;;;;;10.68;4.40;;;;;;;;;;4905280;29;20048;-83
2022/07/15 05:21:46;;;;;;;12.63;4.30;;;;;;;;;;4909889;29;20395;-83
2022/07/15 05:24:31;;;;;;;15.48;5.32;;;;;;;;;;4909729;29;20063;-86
2022/07/15 05:27:19;;;;;;;14.15;4.35;;;;;;;;;;4909243;29;20044;-85
2022/07/15 05:30:08;;;;;;;13.52;4.80;;;;;;;;;;4906744;29;20036;-84
2022/07/15 05:32:55;;;;;;;14.30;4.85;;;;;;;;;;4903877;29;20744;-84
2022/07/15 05:35:41;;;;;;;7.85;2.80;;;;;;;;;;4912487;29;20052;-83
2022/07/15 05:38:27;;;;;;;8.45;2.70;;;;;;;;;;4909742;29;20468;-84
2022/07/15 05:41:12;;;;;;;7.28;2.75;;;;;;;;;;4905258;29;20052;-85
2022/07/15 05:43:58;;;;;;;5.20;2.97;;;;;;;;;;4891257;29;20048;-84
2022/07/15 05:46:43;;;;;;;12.57;3.50;;;;;;;;;;4890980;29;20045;-83
2022/07/15 05:49:30;;;;;;;7.75;3.05;;;;;;;;;;4905864;29;20032;-84
2022/07/15 05:52:15;;;;;;;8.63;3.33;;;;;;;;;;4909564;29;20048;-84
2022/07/15 05:55:02;;;;;;;8.25;3.60;;;;;;;;;;4908287;29;20040;-84
2022/07/15 05:57:47;;;;;;;7.35;3.72;;;;;;;;;;4898902;29;20044;-84
2022/07/15 06:00:33;;;;;;;9.25;3.90;;;;;;;;;;4890389;29;20049;-83
2022/07/15 06:03:20;;;;;;;8.90;3.60;;;;;;;;;;4890590;29;20044;-83
2022/07/15 06:06:06;;;;;;;8.20;3.35;;;;;;;;;;4890766;29;20053;-83
2022/07/15 06:08:53;;;;;;;9.32;3.15;;;;;;;;;;4890232;29;20052;-83
2022/07/15 06:11:45;;;;;;;6.50;3.10;;;;;;;;;;4891276;29;20041;-84
2022/07/15 06:14:34;;;;;;;3.72;2.70;;;;;;;;;;4904856;29;20465;-83
2022/07/15 06:17:20;;;;;;;9.38;3.08;;;;;;;;;;4890522;29;20473;-83
2022/07/15 06:20:07;;;;;;;10.82;3.20;;;;;;;;;;4890972;29;20052;-84
2022/07/15 06:22:53;;;;;;;6.50;2.58;;;;;;;;;;4890280;29;20700;-82
2022/07/15 06:25:42;;;;;;;6.40;2.75;;;;;;;;;;4890988;29;20111;-82
2022/07/15 06:28:29;;;;;;;5.88;2.88;;;;;;;;;;4890615;29;20049;-84
2022/07/15 06:31:17;;;;;;;13.88;3.10;;;;;;;;;;4893733;29;20041;-84
2022/07/15 06:34:03;;;;;;;6.93;2.45;;;;;;;;;;4905728;29;20036;-85
2022/07/15 06:36:58;;;;;;;8.52;2.42;;;;;;;;;;4914398;29;20044;-83
2022/07/15 06:39:43;;;;;;;7.50;3.03;;;;;;;;;;4900280;29;20052;-83
2022/07/15 06:42:28;;;;;;;9.05;2.47;;;;;;;;;;4908226;29;20048;-83
2022/07/15 06:45:20;;;;;;;4.65;2.53;;;;;;;;;;4913363;29;20052;-83
2022/07/15 06:48:06;;;;;;;4.35;2.55;;;;;;;;;;4900110;29;20040;-84
2022/07/15 06:50:51;;;;;;;6.70;2.53;;;;;;;;;;4907568;29;20036;-84
2022/07/15 06:53:36;;;;;;;5.05;2.78;;;;;;;;;;4903828;29;20044;-83
2022/07/15 06:56:22;;;;;;;5.00;2.67;;;;;;;;;;4901970;29;20488;-83
2022/07/15 06:59:08;;;;;;;6.18;2.45;;;;;;;;;;4906946;29;20056;-84
2022/07/15 07:01:53;;;;;;;6.80;2.40;;;;;;;;;;4908013;29;20052;-83
2022/07/15 07:04:42;;;;;;;6.07;2.38;;;;;;;;;;4906417;29;20048;-83
2022/07/15 07:07:27;;;;;;;7.72;2.83;;;;;;;;;;4893580;29;20048;-84
2022/07/15 07:10:15;;;;;;;5.32;2.00;;;;;;;;;;4906763;29;20036;-84
2022/07/15 07:13:00;;;;;;;7.82;2.50;;;;;;;;;;4906312;29;20052;-83
2022/07/15 07:15:46;;;;;;;12.00;2.83;;;;;;;;;;4907557;29;20053;-84
2022/07/15 07:18:33;;;;;;;7.47;2.80;;;;;;;;;;4903789;29;20041;-85
2022/07/15 07:21:19;;;;;;;6.22;2.33;;;;;;;;;;4901291;29;20052;-85
2022/07/15 07:24:07;;;;;;;9.80;5.65;;;;;;;;;;4901242;29;20037;-85
2022/07/15 07:26:52;;;;;;;15.07;4.90;;;;;;;;;;4893314;29;20045;-85
2022/07/15 07:29:38;;;;;;;6.30;2.20;;;;;;;;;;4901371;29;20053;-85
2022/07/15 07:32:24;;;;;;;8.00;2.20;;;;;;;;;;4907131;29;20048;-86
2022/07/15 07:35:09;;;;;;;5.65;2.20;;;;;;;;;;4901007;29;20044;-83
2022/07/15 07:37:55;;;;;;;5.25;2.00;;;;;;;;;;4900578;29;20484;-85
2022/07/15 07:40:40;;;;;;;4.40;2.40;;;;;;;;;;4900263;29;20037;-85
2022/07/15 07:43:27;;;;;;;5.68;2.22;;;;;;;;;;4907086;29;20052;-85
2022/07/15 07:46:13;;;;;;;6.25;2.33;;;;;;;;;;4900942;29;20040;-84
2022/07/15 07:48:58;;;;;;;8.70;2.28;;;;;;;;;;4899459;29;20048;-82
2022/07/15 07:51:44;;;;;;;5.68;2.30;;;;;;;;;;4900880;29;20045;-83
2022/07/15 07:54:32;;;;;;;9.75;2.72;;;;;;;;;;4900362;29;20037;-83
2022/07/15 07:57:17;;;;;;;8.70;3.08;;;;;;;;;;4900884;29;20045;-82
2022/07/15 08:00:03;;;;;;;8.52;2.33;;;;;;;;;;4906919;29;20040;-83
2022/07/15 08:02:59;;;;;;;7.80;2.58;;;;;;;;;;4900240;29;20413;-85
2022/07/15 08:05:45;;;;;;;12.63;2.80;;;;;;;;;;4900639;29;20468;-84
2022/07/15 08:08:30;;;;;;;3.75;2.50;;;;;;;;;;4910404;29;20036;-84
2022/07/15 08:11:19;;;;;;;12.68;2.90;;;;;;;;;;4910187;29;20048;-84
2022/07/15 08:14:05;;;;;;;7.45;2.60;;;;;;;;;;4925200;29;20463;-84
2022/07/15 08:16:50;;;;;;;6.97;2.65;;;;;;;;;;4925236;29;20044;-84
2022/07/15 08:19:35;;;;;;;7.55;2.58;;;;;;;;;;4952685;29;20043;-84
2022/07/15 08:22:22;;;;;;;7.97;2.90;;;;;;;;;;4934022;28;20040;-84
2022/07/15 08:25:07;;;;;;;8.35;3.30;;;;;;;;;;4941708;29;20043;-83
2022/07/15 08:27:56;;;;;;;5.07;3.00;;;;;;;;;;4963634;28;20463;-82
2022/07/15 08:30:41;;;;;;;5.75;2.70;;;;;;;;;;4951259;29;20032;-83
2022/07/15 08:33:27;;;;;;;4.72;2.15;;;;;;;;;;4938066;29;20048;-83
2022/07/15 08:36:16;;;;;;;4.25;2.40;;;;;;;;;;4941182;29;20379;-84
2022/07/15 08:39:02;;;;;;;9.38;2.67;;;;;;;;;;4937753;29;20047;-84
2022/07/15 08:41:48;;;;;;;5.47;1.95;;;;;;;;;;4943120;29;20052;-84
2022/07/15 08:44:35;;;;;;;6.90;2.10;;;;;;;;;;4947709;28;20043;-84
2022/07/15 08:47:26;;;;;;;6.55;1.90;;;;;;;;;;4944587;29;20043;-83
2022/07/15 08:50:15;;;;;;;5.70;2.20;;;;;;;;;;4962442;28;20039;-84
2022/07/15 08:52:59;;;;;;;5.32;2.13;;;;;;;;;;4950888;28;20051;-84
2022/07/15 08:55:46;;;;;;;7.13;2.40;;;;;;;;;;4949298;29;20039;-83
2022/07/15 08:58:36;;;;;;;7.13;1.95;;;;;;;;;;4943217;29;20051;-84
2022/07/15 09:01:22;;;;;;;6.45;1.98;;;;;;;;;;4954882;29;20035;-83
2022/07/15 09:04:08;;;;;;;6.13;1.98;;;;;;;;;;4945191;29;20039;-84
2022/07/15 09:06:54;;;;;;;12.68;2.08;;;;;;;;;;4947689;29;20478;-83
2022/07/15 09:09:39;;;;;;;3.83;1.95;;;;;;;;;;4936835;29;20040;-84
2022/07/15 09:12:25;;;;;;;6.25;2.25;;;;;;;;;;4936311;29;20039;-84
2022/07/15 09:15:32;;;;;;;5.93;1.83;;;;;;;;;;4943291;28;20039;-83
2022/07/15 09:18:20;;;;;;;10.35;1.90;;;;;;;;;;4921643;29;20052;-84
2022/07/15 09:21:20;;;;;;;4.90;1.60;;;;;;;;;;4909740;29;20420;-84
2022/07/15 09:24:18;;;;;;;3.28;1.75;;;;;;;;;;4917961;29;20044;-83
2022/07/15 09:27:27;;;;;;;4.53;1.80;;;;;;;;;;4923930;29;20056;-84
2022/07/15 09:33:38;;;;;;;4.10;1.80;;;;;;;;;;4917515;29;20056;-83
2022/07/15 09:36:27;;;;;;;5.40;1.90;;;;;;;;;;4918037;29;20040;-83
2022/07/15 09:39:13;;;;;;;9.13;1.98;;;;;;;;;;4917491;29;20056;-84
2022/07/15 09:42:06;;;;;;;4.25;1.80;;;;;;;;;;4917785;29;20040;-83
2022/07/15 09:44:52;;;;;;;11.90;1.65;;;;;;;;;;4916804;29;20052;-84
2022/07/15 09:47:38;;;;;;;8.63;2.20;;;;;;;;;;4913901;29;20044;-82
2022/07/15 09:50:35;;;;;;;6.97;1.33;;;;;;;;;;4905815;29;20040;-83
2022/07/15 09:53:19;;;;;;;3.58;1.50;;;;;;;;;;4906773;29;20044;-83
2022/07/15 09:56:07;;;;;;;4.05;1.42;;;;;;;;;;4924329;29;20056;-83
2022/07/15 09:58:53;;;;;;;5.70;1.60;;;;;;;;;;4917733;29;20480;-83
2022/07/15 10:01:40;;;;;;;4.05;1.48;;;;;;;;;;4917467;29;20048;-82
2022/07/15 10:04:27;;;;;;;4.93;1.42;;;;;;;;;;4905299;29;20049;-84
2022/07/15 10:07:13;;;;;;;6.80;1.83;;;;;;;;;;4904839;29;20434;-83
2022/07/15 10:10:01;;;;;;;1.75;1.30;;;;;;;;;;4916295;29;20048;-83
2022/07/15 10:13:16;;;;;;;3.80;1.38;;;;;;;;;;4908343;29;20040;-83
2022/07/15 10:16:46;;;;;;;4.20;1.50;;;;;;;;;;4907278;29;20040;-84
2022/07/15 10:20:08;;;;;;;2.10;1.33;;;;;;;;;;4895760;29;20056;-83
2022/07/15 10:23:24;;;;;;;5.57;1.50;;;;;;;;;;4908810;29;20056;-85
2022/07/15 10:26:30;;;;;;;3.60;1.42;;;;;;;;;;4913634;29;20395;-85
2022/07/15 10:29:16;;;;;;;6.60;1.30;;;;;;;;;;4927243;29;20048;-85
2022/07/15 10:32:04;;;;;;;7.72;1.58;;;;;;;;;;4927685;29;20048;-85
2022/07/15 10:34:49;;;;;;;3.15;1.30;;;;;;;;;;4920330;29;20044;-84
2022/07/15 10:37:37;;;;;;;2.78;1.30;;;;;;;;;;4921260;29;20464;-84
2022/07/15 10:40:45;;;;;;;3.47;1.52;;;;;;;;;;4920724;29;20044;-83
2022/07/15 10:43:50;;;;;;;4.57;1.60;;;;;;;;;;4928226;29;20040;-84
2022/07/15 10:46:35;;;;;;;7.35;1.70;;;;;;;;;;4921660;29;20456;-84
2022/07/15 10:49:21;;;;;;;3.20;1.38;;;;;;;;;;4920678;29;20052;-84
2022/07/15 10:52:14;;;;;;;3.00;1.27;;;;;;;;;;4921461;29;20044;-84
2022/07/15 10:55:03;;;;;;;11.32;1.50;;;;;;;;;;4920847;29;20065;-84
2022/07/15 10:57:53;;;;;;;7.32;1.50;;;;;;;;;;4921130;29;20056;-84
2022/07/15 11:00:40;;;;;;;2.00;1.40;;;;;;;;;;4920901;29;20468;-85
2022/07/15 11:03:26;;;;;;;6.47;1.58;;;;;;;;;;4920338;29;20044;-83
2022/07/15 11:06:12;;;;;;;1.85;1.50;;;;;;;;;;4921071;29;20032;-83
2022/07/15 11:08:57;;;;;;;4.38;1.45;;;;;;;;;;4926654;29;20052;-84
2022/07/15 11:11:43;;;;;;;4.03;1.77;;;;;;;;;;4939013;29;20040;-84
2022/07/15 11:14:42;;;;;;;3.65;1.38;;;;;;;;;;4927850;29;20052;-84
2022/07/15 11:17:28;;;;;;;4.30;2.00;;;;;;;;;;4920835;29;20036;-84
2022/07/15 11:20:14;;;;;;;3.47;1.50;;;;;;;;;;4943227;29;20047;-84
2022/07/15 11:23:01;;;;;;;2.50;1.50;;;;;;;;;;4941455;29;20475;-84
2022/07/15 11:25:48;;;;;;;4.68;1.70;;;;;;;;;;4943925;29;20039;-84
2022/07/15 11:28:36;;;;;;;6.40;1.90;;;;;;;;;;4958026;29;20475;-84
2022/07/15 11:31:22;;;;;;;4.95;1.45;;;;;;;;;;4957757;29;20383;-84
2022/07/15 11:34:11;;;;;;;5.13;1.65;;;;;;;;;;4940508;29;20491;-83
2022/07/15 11:36:59;;;;;;;3.55;1.60;;;;;;;;;;4939149;29;20044;-85
2022/07/15 11:39:49;;;;;;;4.75;1.35;;;;;;;;;;4938646;29;20059;-84
2022/07/15 11:45:39;;;;;;;;;;;;;;;;;;4945304;29;20047;-83
2022/07/15 11:48:24;;;;;;;;;;;;;;;;;;4939058;29;19915;-83
2022/07/15 11:51:12;;;;;;;3.20;1.63;;;;;;;;;;4942257;29;19914;-84
2022/07/15 11:53:58;;;;;;;2.75;1.50;;;;;;;;;;4958026;29;20044;-84
2022/07/15 11:56:56;;;;;;;4.78;1.52;;;;;;;;;;4958529;29;20035;-83
2022/07/15 11:59:59;;;;;;;2.60;1.70;;;;;;;;;;4957594;29;20055;-83
2022/07/15 12:02:46;;;;;;;7.20;1.50;;;;;;;;;;4957947;29;20043;-84
2022/07/15 12:05:32;;;;;;;4.30;1.58;;;;;;;;;;4957748;29;20379;-84
2022/07/15 12:08:33;;;;;;;9.13;1.85;;;;;;;;;;4958729;29;20043;-84
2022/07/15 12:11:33;;;;;;;3.05;1.40;;;;;;;;;;4958532;29;20463;-83
2022/07/15 12:14:25;;;;;;;3.28;1.60;;;;;;;;;;4956977;29;20047;-85
2022/07/15 12:17:36;;;;;;;31.40;26.25;;;;;;;;;;4937626;29;20047;-85
2022/07/15 12:20:30;;;;;;;3.25;1.70;;;;;;;;;;4906947;29;20048;-84
2022/07/15 12:24:08;;;;;;;;;;;;;;;;;;;;;
2022/07/15 12:27:48;;;;;;;4.90;1.60;;;;;;;;;;4918997;29;20040;-85
2022/07/15 12:30:47;;;;;;;;;;;;;;;;;;4907999;29;20132;-84
2022/07/15 12:33:43;;;;;;;2.10;1.60;;;;;;;;;;4905996;29;19916;-85
2022/07/15 12:36:32;;;;;;;7.47;1.60;;;;;;;;;;4924498;29;20048;-84
2022/07/15 12:39:18;;;;;;;5.80;1.50;;;;;;;;;;4919311;29;20044;-84
2022/07/15 12:42:09;;;;;;;2.50;1.60;;;;;;;;;;4918237;29;20044;-83
2022/07/15 12:45:25;;;;;;;2.50;1.50;;;;;;;;;;4918951;29;20052;-85
2022/07/15 12:48:18;;;;;;;2.13;1.30;;;;;;;;;;4918300;29;20468;-85
2022/07/15 12:51:15;;;;;;;3.22;1.58;;;;;;;;;;4911131;29;20048;-84
2022/07/15 12:54:06;;;;;;;3.53;1.75;;;;;;;;;;4918401;29;20044;-83
2022/07/15 12:56:51;;;;;;;4.88;1.63;;;;;;;;;;4918160;29;20044;-84
2022/07/15 12:59:55;;;;;;;2.63;1.50;;;;;;;;;;4910946;29;20487;-81
2022/07/15 13:03:08;;;;;;;7.90;2.00;;;;;;;;;;4918232;29;20044;-84
2022/07/15 13:05:58;;;;;;;5.10;1.50;;;;;;;;;;4918701;29;20036;-84
2022/07/15 13:08:44;;;;;;;3.08;1.50;;;;;;;;;;4917973;29;20044;-84
2022/07/15 13:11:30;;;;;;;4.10;1.58;;;;;;;;;;4924474;29;20052;-85
2022/07/15 13:14:18;;;;;;;5.05;1.52;;;;;;;;;;4924762;29;20055;-86
2022/07/15 13:17:08;;;;;;;4.28;1.90;;;;;;;;;;4910121;29;20408;-85
2022/07/15 13:19:53;;;;;;;6.97;1.77;;;;;;;;;;4906983;29;20051;-85
2022/07/15 13:22:39;;;;;;;4.30;1.60;;;;;;;;;;4924299;29;20051;-84
2022/07/15 13:25:27;;;;;;;2.85;1.30;;;;;;;;;;4900878;29;20040;-84
2022/07/15 13:28:16;;;;;;;4.68;1.65;;;;;;;;;;4910545;29;20377;-85
2022/07/15 13:31:00;;;;;;;3.90;1.40;;;;;;;;;;4909773;29;20043;-85
2022/07/15 13:33:45;;;;;;;2.35;1.60;;;;;;;;;;4905144;29;20040;-84
2022/07/15 13:36:31;;;;;;;2.00;1.40;;;;;;;;;;4917684;29;20036;-84
2022/07/15 13:39:19;;;;;;;2.75;1.50;;;;;;;;;;4907803;29;20040;-85
2022/07/15 13:42:04;;;;;;;2.55;1.67;;;;;;;;;;4891366;29;20091;-85
2022/07/15 13:44:48;;;;;;;3.80;1.83;;;;;;;;;;4891228;29;20049;-85
2022/07/15 13:47:40;;;;;;;2.65;1.40;;;;;;;;;;4905054;29;20394;-85
2022/07/15 13:53:29;;;;;;;2.83;1.70;;;;;;;;;;4917497;29;20044;-84
2022/07/15 13:56:18;;;;;;;3.10;1.70;;;;;;;;;;4924244;29;20051;-85
2022/07/15 13:59:08;;;;;;;7.50;1.42;;;;;;;;;;4923712;29;20051;-86
2022/07/15 14:01:57;;;;;;;3.85;1.60;;;;;;;;;;4917752;29;20056;-85
2022/07/15 14:05:14;;;;;;;4.13;1.60;;;;;;;;;;4902790;29;20040;-84
2022/07/15 14:12:32;;;;;;;4.45;1.27;;;;;;;;;;4908102;29;20048;-84
2022/07/15 14:15:30;;;;;;;3.45;1.50;;;;;;;;;;4915772;29;20036;-86
2022/07/15 14:19:12;;;;;;;5.93;1.60;;;;;;;;;;4919740;29;20051;-86
2022/07/15 14:27:04;;;;;;;2.78;1.42;;;;;;;;;;4935074;29;20040;-85
2022/07/15 14:30:50;;;;;;;4.30;1.40;;;;;;;;;;4938712;29;20044;-84
2022/07/15 14:34:21;;;;;;;4.45;1.42;;;;;;;;;;4935865;29;20043;-84
2022/07/15 14:37:08;;;;;;;1.90;1.30;;;;;;;;;;4942665;29;20036;-86
2022/07/15 14:40:14;;;;;;;2.83;1.30;;;;;;;;;;4936376;29;20055;-85
2022/07/15 14:43:09;;;;;;;3.30;1.73;;;;;;;;;;4936828;29;20040;-84
2022/07/15 14:45:55;;;;;;;3.90;1.30;;;;;;;;;;4936789;29;20387;-85
2022/07/15 14:48:40;;;;;;;7.00;1.50;;;;;;;;;;4935771;29;20035;-85
2022/07/15 14:51:28;;;;;;;3.17;1.42;;;;;;;;;;4935445;29;20039;-85
2022/07/15 14:54:13;;;;;;;6.25;1.58;;;;;;;;;;4927449;29;20040;-86
2022/07/15 14:57:00;;;;;;;8.85;1.83;;;;;;;;;;4941647;29;20039;-86
2022/07/15 15:05:00;;;;;;;4.50;1.70;;;;;;;;;;4945176;29;20031;-84
2022/07/15 15:19:17;;;;;;;5.28;1.60;;;;;;;;;;4936863;29;20467;-85
2022/07/15 15:22:05;;;;;;;4.55;1.30;;;;;;;;;;4926331;29;20048;-84
2022/07/15 15:24:50;;;;;;;3.22;1.50;;;;;;;;;;4920058;29;20043;-86
2022/07/15 15:27:36;;;;;;;3.97;1.35;;;;;;;;;;4920191;29;20048;-85
2022/07/15 15:30:21;;;;;;;4.85;1.65;;;;;;;;;;4919517;29;20048;-85
2022/07/15 15:33:06;;;;;;;3.28;1.70;;;;;;;;;;4920287;29;20044;-85
2022/07/15 15:35:52;;;;;;;4.43;1.70;;;;;;;;;;4920057;29;20044;-85
2022/07/15 15:38:38;;;;;;;5.90;1.70;;;;;;;;;;4926637;29;20476;-86
2022/07/15 15:41:23;;;;;;;3.60;1.60;;;;;;;;;;4920253;29;20044;-84
2022/07/15 15:44:09;;;;;;;6.07;2.22;;;;;;;;;;4919774;29;20048;-84
2022/07/15 15:46:54;;;;;;;3.72;1.60;;;;;;;;;;4926264;29;20048;-84
2022/07/15 15:49:40;;;;;;;5.20;1.83;;;;;;;;;;4926374;29;20036;-84
2022/07/15 15:52:26;;;;;;;5.93;1.80;;;;;;;;;;4919892;29;20044;-84
2022/07/15 15:55:11;;;;;;;7.88;1.67;;;;;;;;;;4911917;29;20043;-86
2022/07/15 15:57:57;;;;;;;4.75;1.80;;;;;;;;;;4919563;29;20048;-84
2022/07/15 16:00:42;;;;;;;3.90;1.65;;;;;;;;;;4919839;29;20044;-85
2022/07/15 16:03:28;;;;;;;4.22;1.75;;;;;;;;;;4919973;29;20040;-84
2022/07/15 16:06:13;;;;;;;3.72;1.92;;;;;;;;;;4905541;29;20043;-84
2022/07/15 16:08:59;;;;;;;3.40;1.75;;;;;;;;;;4918417;29;20044;-85
2022/07/15 16:11:48;;;;;;;4.70;1.80;;;;;;;;;;4911617;29;20040;-85
2022/07/15 16:31:22;;;;;;;2.88;1.73;;;;;;;;;;4916989;29;20044;-86
2022/07/15 16:35:01;;;;;;;5.75;1.90;;;;;;;;;;4910485;29;20069;-86
2022/07/15 16:38:01;;;;;;;4.50;2.50;;;;;;;;;;4926499;29;20052;-85
2022/07/15 16:41:25;;;;;;;8.35;2.20;;;;;;;;;;4894734;29;20388;-87
2022/07/15 16:45:27;;;;;;;6.82;2.03;;;;;;;;;;4905519;29;20382;-88
2022/07/15 16:57:44;;;;;;;5.72;2.47;;;;;;;;;;4843988;29;20050;-85
2022/07/15 17:06:05;;;;;;;;;;;;;;;;;;;;;
2022/07/15 17:22:28;;;;;;;6.72;2.38;;;;;;;;;;4847063;29;20050;-86
2022/07/15 17:43:03;;;;;;;12.68;5.75;;;;;;;;;;4923710;29;20040;-85
2022/07/15 17:47:26;;;;;;;;;;;;;;;;;;;;;
2022/07/15 18:07:09;;;;;;;8.05;3.92;;;;;;;;;;4917142;29;20044;-85
2022/07/15 18:09:55;;;;;;;13.65;4.30;;;;;;;;;;4920391;29;20074;-87
2022/07/15 18:12:41;;;;;;;11.52;4.35;;;;;;;;;;4916527;29;20056;-85
2022/07/15 18:15:27;;;;;;;10.82;4.03;;;;;;;;;;4916769;29;20048;-86
2022/07/15 18:18:13;;;;;;;11.35;3.97;;;;;;;;;;4916720;29;20483;-86
2022/07/15 18:21:00;;;;;;;8.02;4.10;;;;;;;;;;4917222;29;20048;-86
2022/07/15 18:23:45;;;;;;;10.82;3.88;;;;;;;;;;4902088;29;20040;-85
2022/07/15 18:26:31;;;;;;;7.20;3.83;;;;;;;;;;4917477;29;20048;-85
2022/07/15 18:29:17;;;;;;;12.52;4.38;;;;;;;;;;4917458;29;20059;-85
2022/07/15 18:32:03;;;;;;;10.75;3.70;;;;;;;;;;4909076;29;20048;-85
2022/07/15 18:34:49;;;;;;;8.93;3.53;;;;;;;;;;4920909;29;20044;-85
2022/07/15 18:37:35;;;;;;;7.93;3.42;;;;;;;;;;4920429;29;20387;-85
2022/07/15 18:40:20;;;;;;;9.68;3.10;;;;;;;;;;4921108;29;20044;-86
2022/07/15 18:43:06;;;;;;;9.45;3.00;;;;;;;;;;4920919;29;20056;-86
2022/07/15 18:45:52;;;;;;;7.82;2.85;;;;;;;;;;4920359;29;20044;-85
2022/07/15 18:48:37;;;;;;;5.43;2.67;;;;;;;;;;4921168;29;20047;-85
2022/07/15 18:51:23;;;;;;;5.70;2.63;;;;;;;;;;4920277;29;20040;-86
2022/07/15 18:54:08;;;;;;;5.82;2.70;;;;;;;;;;4920669;29;20044;-85
2022/07/15 18:56:54;;;;;;;5.75;2.42;;;;;;;;;;4921154;29;20457;-86
2022/07/15 18:59:39;;;;;;;7.60;2.38;;;;;;;;;;4919773;29;20040;-85